• Join FlightAware (Why Join?)
  • Login
  • US Flag 
03:29PM EDT


 

Airport Tracker/Info


-or-


 

Live Flight TrackerFlight Track Log ✈ UAL4849 ✈ 26-Apr-2013 ✈ KROC - KEWR

Flight Track Log - Related Links

Times and Time Zones

All times are in EDT time to prevent confusion due to time zone crossing. See the UAL4849 flight status page for this flight to view local times or setup timezone preferences in your user account.

Time Position Orientation Groundspeed Altitude Reporting Facility
EDT Latitude Longitude Course Direction KTS MPH feet Rate Location/Type
11:03AM 43.1056 -77.6883 199° South 130 150 1,000  Level Cleveland Center
11:03AM 43.0850 -77.6978 199° South 138 159 1,800 1,380 Climbing Cleveland Center
11:04AM 43.0731 -77.6386 105° East 192 221 3,100 1,320 Climbing Cleveland Center
11:05AM 43.0733 -77.5733 90° East 203 234 4,600 1,500 Climbing Cleveland Center
11:06AM 43.0736 -77.5050 90° East 191 220 6,200 1,380 Climbing Cleveland Center
11:07AM 43.0614 -77.4347 103° East 191 220 7,400 1,200 Climbing Cleveland Center
11:08AM 43.0222 -77.3742 131° Southeast 192 221 8,600 1,200 Climbing Cleveland Center
11:09AM 42.9892 -77.3106 125° Southeast 198 228 9,900 1,200 Climbing Cleveland Center
11:10AM 42.9536 -77.2386 124° Southeast 203 234 11,100 960 Climbing Cleveland Center
11:12AM 42.8811 -77.0983 125° Southeast 220 253 13,000 600 Climbing New York Center
11:13AM 42.8353 -77.0178 128° Southeast 244 281 13,000  Level New York Center
11:14AM 42.7922 -76.9289 123° Southeast 271 312 13,000  Level New York Center
11:15AM 42.7514 -76.8289 119° Southeast 288 331 13,000  Level New York Center
11:16AM 42.7083 -76.7347 122° Southeast 300 345 13,000  Level New York Center
11:17AM 42.6653 -76.6403 122° Southeast 300 345 13,000  Level New York Center
11:19AM 42.6125 -76.5286 123° Southeast 301 346 13,000  Level Boston Center
11:20AM 42.5622 -76.4153 121° Southeast 296 341 13,000  Level Boston Center
11:21AM 42.5194 -76.3222 122° Southeast 296 341 13,000  Level Boston Center
11:22AM 42.4811 -76.2269 119° Southeast 290 334 13,000  Level Boston Center
11:23AM 42.4361 -76.1342 123° Southeast 290 334 13,100  Climbing Boston Center
11:24AM 42.3836 -76.0214 122° Southeast 290 334 13,000  Descending Boston Center
11:25AM 42.3406 -75.9233 121° Southeast 285 328 13,100 -60 Climbing Boston Center
11:26AM 42.2997 -75.8314 121° Southeast 290 334 12,900 -60 Descending Boston Center
11:27AM 42.2547 -75.7278 120° Southeast 285 328 13,000 60 Climbing Boston Center
11:28AM 42.2117 -75.6358 122° Southeast 285 328 13,100  Climbing Boston Center
11:29AM 42.1703 -75.5442 121° Southeast 285 328 13,100  Level Boston Center
11:30AM 42.1250 -75.4494 123° Southeast 285 328 13,100 -60 Level Boston Center
11:31AM 42.0814 -75.3578 123° Southeast 285 328 13,000  Descending Boston Center
11:32AM 42.0439 -75.2750 121° Southeast 285 328 13,100  Climbing Boston Center
11:33AM 42.0167 -75.1956 115° Southeast 285 328 13,000 -60 Descending Boston Center
11:34AM 41.9697 -75.0678 116° Southeast 290 334 13,000  Level Boston Center
11:35AM 41.9364 -74.9797 117° Southeast 290 334 13,000 -300 Level Boston Center
11:36AM 41.9008 -74.8919 119° Southeast 290 334 12,500 -840 Descending Boston Center
11:37AM 41.8553 -74.7814 119° Southeast 302 348 11,400 -1,020 Descending Boston Center
11:38AM 41.8194 -74.6881 117° Southeast 302 348 10,500 -960 Descending Boston Center
11:39AM 41.7819 -74.5839 116° Southeast 295 339 9,500 -1,140 Descending Boston Center
11:40AM 41.7144 -74.5203 145° Southeast 267 307 8,300 -780 Descending Boston Center
11:41AM 41.6514 -74.5461 197° South 246 283 8,000 -180 Descending Boston Center
11:42AM 41.5717 -74.5656 190° South 260 299 8,000  Level Boston Center
11:43AM 41.5069 -74.5744 186° South 260 299 8,000 -540 Level Boston Center
11:44AM 41.4275 -74.5886 188° South 260 299 7,000 -1,020 Descending Boston Center
11:45AM 41.3500 -74.6167 195° South 258 297 6,000 -540 Descending New York TRACON
11:46AM 41.2833 -74.6167 180° South 247 284 6,000  Level New York TRACON
11:47AM 41.2333 -74.5667 143° Southeast 253 291 6,000  Level New York TRACON
11:48AM 41.1833 -74.5167 143° Southeast 251 289 6,000  Level New York TRACON
11:49AM 41.1500 -74.4333 118° Southeast 239 275 6,000  Level New York TRACON
11:50AM 41.1167 -74.3667 124° Southeast 242 278 6,000  Level New York TRACON
11:51AM 41.0500 -74.4000 201° Southwest 236 272 6,000  Level New York TRACON
11:52AM 41.0000 -74.4500 217° Southwest 237 273 6,000  Level New York TRACON
11:53AM 40.9333 -74.5000 210° Southwest 240 276 6,000  Level New York TRACON
11:54AM 40.8833 -74.5333 207° Southwest 241 277 6,000  Level New York TRACON
11:55AM 40.8167 -74.5500 191° South 239 275 6,000  Level New York TRACON
11:56AM 40.7667 -74.5500 180° South 236 272 6,000  Level New York TRACON
11:57AM 40.7000 -74.5500 180° South 236 272 6,000  Level New York TRACON
11:58AM 40.6167 -74.5333 171° South 237 273 6,000  Level New York TRACON
11:59AM 40.5667 -74.5333 180° South 235 270 6,000 -180 Level New York TRACON
12:00PM 40.5000 -74.5167 169° South 234 269 5,700 -480 Descending New York TRACON
12:01PM 40.4333 -74.5167 180° South 241 277 5,100 -420 Descending New York TRACON
12:02PM 40.3667 -74.5000 169° South 246 283 5,000 -540 Descending New York TRACON
12:03PM 40.3500 -74.4333 108° East 240 276 4,100 -840 Descending New York TRACON
12:04PM 40.3833 -74.3667 57° Northeast 216 249 3,400 -540 Descending New York TRACON
12:05PM 40.4333 -74.3333 27° Northeast 209 241 3,100 -300 Descending New York TRACON
12:06PM 40.5000 -74.3000 21° North 218 251 2,900 -120 Descending New York TRACON
12:07PM 40.5500 -74.2500 37° Northeast 198 228 2,900 -420 Level New York TRACON
12:08PM 40.6000 -74.2333 14° North 183 211 2,100 -900 Descending New York TRACON
12:09PM 40.6333 -74.2000 37° Northeast 163 188 1,100 -1,020 Descending New York TRACON